createdAt,value
2017-06-10T00:00:11.655Z,1011.22
2017-06-10T00:01:21.221Z,1011.23
2017-06-10T00:02:30.186Z,1011.2
2017-06-10T00:03:39.606Z,1011.22
2017-06-10T00:04:49.207Z,1011.19
2017-06-10T00:05:59.890Z,1011.14
2017-06-10T00:07:09.163Z,1011.13
2017-06-10T00:08:18.734Z,1011.16
2017-06-10T00:09:28.082Z,1011.13
2017-06-10T00:10:38.090Z,1011.14
2017-06-10T00:11:47.500Z,1011.19
2017-06-10T00:12:57.590Z,1011.19
2017-06-10T00:14:23.059Z,1011.23
2017-06-10T00:15:46.866Z,1011.21
2017-06-10T00:17:09.630Z,1011.28
2017-06-10T00:18:21.816Z,1011.21
2017-06-10T00:19:31.542Z,1011.22
2017-06-10T00:20:41.395Z,1011.19
2017-06-10T00:21:50.938Z,1011.1
2017-06-10T00:23:00.190Z,1011.07
2017-06-10T00:24:09.509Z,1011.07
2017-06-10T00:25:18.464Z,1011.07
2017-06-10T00:26:27.423Z,1011.01
2017-06-10T00:27:36.710Z,1011.1
2017-06-10T00:28:45.671Z,1011.13
2017-06-10T00:29:54.629Z,1011.1
2017-06-10T00:31:03.587Z,1011.14
2017-06-10T00:32:12.543Z,1011.14
2017-06-10T00:33:21.946Z,1011.15
2017-06-10T00:34:31.214Z,1011.11
2017-06-10T00:35:40.179Z,1011.16
2017-06-10T00:36:49.264Z,1011.15
2017-06-10T00:37:58.222Z,1011.12
2017-06-10T00:39:07.180Z,1011.11
2017-06-10T00:40:16.154Z,1011.15
2017-06-10T00:41:25.304Z,1011.11
2017-06-10T00:42:34.282Z,1011.12
2017-06-10T00:43:43.413Z,1011.12
2017-06-10T00:44:52.478Z,1011.13
2017-06-10T00:46:01.508Z,1011.13
2017-06-10T00:47:10.471Z,1011.15
2017-06-10T00:48:19.789Z,1011.2
2017-06-10T00:49:28.776Z,1011.15
2017-06-10T00:50:37.857Z,1011.18
2017-06-10T00:51:46.934Z,1011.18
2017-06-10T00:52:55.891Z,1011.21
2017-06-10T00:54:04.885Z,1011.16
2017-06-10T00:55:13.857Z,1011.17
2017-06-10T00:56:22.843Z,1011.15
2017-06-10T00:57:31.854Z,1011.2
2017-06-10T00:58:40.960Z,1011.17
2017-06-10T00:59:50.258Z,1011.18
2017-06-10T01:00:59.210Z,1011.18
2017-06-10T01:02:08.173Z,1011.18
2017-06-10T01:03:17.132Z,1011.2
2017-06-10T01:04:26.314Z,1011.17
2017-06-10T01:05:37.939Z,1011.21
2017-06-10T01:06:46.942Z,1011.2
2017-06-10T01:07:55.909Z,1011.24
2017-06-10T01:09:04.874Z,1011.28
2017-06-10T01:10:13.991Z,1011.24
2017-06-10T01:11:23.292Z,1011.2
2017-06-10T01:12:32.251Z,1011.22
2017-06-10T01:13:42.167Z,1011.25
2017-06-10T01:14:51.125Z,1011.25
2017-06-10T01:16:00.793Z,1011.3
2017-06-10T01:17:09.757Z,1011.25
2017-06-10T01:18:19.554Z,1011.22
2017-06-10T01:19:28.836Z,1011.23
2017-06-10T01:20:39.583Z,1011.21
2017-06-10T01:21:49.737Z,1011.24
2017-06-10T01:23:00.137Z,1011.28
2017-06-10T01:24:11.259Z,1011.28
2017-06-10T01:25:20.332Z,1011.28
2017-06-10T01:26:32.781Z,1011.32
2017-06-10T01:27:44.469Z,1011.27
2017-06-10T01:28:53.427Z,1011.28
2017-06-10T01:30:02.933Z,1011.32
2017-06-10T01:31:14.632Z,1011.3
2017-06-10T01:32:23.638Z,1011.33
2017-06-10T01:33:36.325Z,1011.37
2017-06-10T01:34:47.737Z,1011.38
2017-06-10T01:35:59.550Z,1011.34
2017-06-10T01:37:16.022Z,1011.37
2017-06-10T01:38:29.858Z,1011.38
2017-06-10T01:39:45.416Z,1011.37
2017-06-10T01:40:57.319Z,1011.45
2017-06-10T01:42:07.442Z,1011.48
2017-06-10T01:43:22.953Z,1011.43
2017-06-10T01:44:36.671Z,1011.48
2017-06-10T01:45:50.950Z,1011.45
2017-06-10T01:46:59.911Z,1011.48
2017-06-10T01:48:08.871Z,1011.49
2017-06-10T01:49:17.883Z,1011.54
2017-06-10T01:50:26.842Z,1011.54
2017-06-10T01:51:35.804Z,1011.58
2017-06-10T01:52:44.768Z,1011.59
2017-06-10T01:53:53.727Z,1011.59
2017-06-10T01:55:02.744Z,1011.58
2017-06-10T01:56:11.701Z,1011.6
2017-06-10T01:57:20.661Z,1011.63
2017-06-10T01:58:29.618Z,1011.6
2017-06-10T01:59:41.360Z,1011.63
2017-06-10T02:00:50.321Z,1011.67
2017-06-10T02:01:59.423Z,1011.72
2017-06-10T02:03:10.107Z,1011.73
2017-06-10T02:04:21.991Z,1011.74
2017-06-10T02:05:33.764Z,1011.74
2017-06-10T02:06:44.697Z,1011.78
2017-06-10T02:07:54.151Z,1011.8
2017-06-10T02:09:03.117Z,1011.82
2017-06-10T02:10:12.075Z,1011.76
2017-06-10T02:11:21.031Z,1011.8
2017-06-10T02:12:30.078Z,1011.84
2017-06-10T02:13:39.039Z,1011.82
2017-06-10T02:14:48.327Z,1011.83
2017-06-10T02:15:57.280Z,1011.85
2017-06-10T02:17:06.235Z,1011.83
2017-06-10T02:18:15.367Z,1011.89
2017-06-10T02:19:24.333Z,1011.87
2017-06-10T02:20:33.314Z,1011.91
2017-06-10T02:21:42.273Z,1011.87
2017-06-10T02:22:51.233Z,1011.9
2017-06-10T02:24:00.192Z,1011.92
2017-06-10T02:25:09.483Z,1011.95
2017-06-10T02:26:18.440Z,1011.92
2017-06-10T02:27:27.398Z,1011.93
2017-06-10T02:28:36.360Z,1011.98
2017-06-10T02:29:45.369Z,1011.95
2017-06-10T02:30:54.328Z,1011.99
2017-06-10T02:32:03.283Z,1011.98
2017-06-10T02:33:12.240Z,1011.95
2017-06-10T02:34:21.197Z,1011.97
2017-06-10T02:35:30.161Z,1012.03
2017-06-10T02:36:39.125Z,1012.06
2017-06-10T02:37:48.087Z,1012.1
2017-06-10T02:38:57.045Z,1012.07
2017-06-10T02:40:06.004Z,1012.19
2017-06-10T02:41:15.011Z,1012.19
2017-06-10T02:42:23.995Z,1012.17
2017-06-10T02:43:32.956Z,1012.2
2017-06-10T02:44:41.913Z,1012.23
2017-06-10T02:45:50.871Z,1012.24
2017-06-10T02:46:59.835Z,1012.23
2017-06-10T02:48:08.798Z,1012.27
2017-06-10T02:49:17.759Z,1012.29
2017-06-10T02:50:26.717Z,1012.34
2017-06-10T02:51:35.680Z,1012.34
2017-06-10T02:52:44.635Z,1012.31
2017-06-10T02:53:53.590Z,1012.4
2017-06-10T02:55:02.550Z,1012.37
2017-06-10T02:56:11.532Z,1012.38
2017-06-10T02:57:20.489Z,1012.37
2017-06-10T02:58:29.449Z,1012.39
2017-06-10T02:59:38.409Z,1012.35
2017-06-10T03:00:47.368Z,1012.36
2017-06-10T03:01:56.327Z,1012.38
2017-06-10T03:03:05.289Z,1012.4
2017-06-10T03:04:14.299Z,1012.39
2017-06-10T03:05:23.268Z,1012.43
2017-06-10T03:06:32.223Z,1012.45
2017-06-10T03:07:41.180Z,1012.48
2017-06-10T03:08:50.146Z,1012.48
2017-06-10T03:09:59.478Z,1012.49
2017-06-10T03:11:08.439Z,1012.52
2017-06-10T03:12:17.480Z,1012.55
2017-06-10T03:13:26.440Z,1012.55
2017-06-10T03:14:35.396Z,1012.57
2017-06-10T03:15:44.352Z,1012.63
2017-06-10T03:16:53.398Z,1012.59
2017-06-10T03:18:02.364Z,1012.59
2017-06-10T03:19:11.326Z,1012.63
2017-06-10T03:20:20.284Z,1012.61
2017-06-10T03:21:29.241Z,1012.64
2017-06-10T03:22:38.200Z,1012.67
2017-06-10T03:23:47.161Z,1012.71
2017-06-10T03:24:56.125Z,1012.72
2017-06-10T03:26:05.081Z,1012.72
2017-06-10T03:27:14.036Z,1012.71
2017-06-10T03:28:23.082Z,1012.79
2017-06-10T03:29:32.041Z,1012.81
2017-06-10T03:30:40.998Z,1012.81
2017-06-10T03:31:49.954Z,1012.83
2017-06-10T03:32:59.242Z,1012.87
2017-06-10T03:34:08.201Z,1012.86
2017-06-10T03:35:17.165Z,1012.86
2017-06-10T03:36:26.123Z,1012.86
2017-06-10T03:37:35.168Z,1012.86
2017-06-10T03:38:44.173Z,1012.88
2017-06-10T03:39:53.132Z,1012.9
2017-06-10T03:41:02.096Z,1012.92
2017-06-10T03:42:11.054Z,1012.92
2017-06-10T03:43:20.017Z,1012.94
2017-06-10T03:44:28.977Z,1012.94
2017-06-10T03:45:37.953Z,1012.94
2017-06-10T03:46:46.905Z,1012.94
2017-06-10T03:47:55.865Z,1012.97
2017-06-10T03:49:04.821Z,1012.99
2017-06-10T03:50:14.159Z,1012.97
2017-06-10T03:51:23.116Z,1012.97
2017-06-10T03:52:32.081Z,1012.99
2017-06-10T03:53:41.870Z,1013.02
2017-06-10T03:54:50.911Z,1013.04
2017-06-10T03:56:00.114Z,1013.02
2017-06-10T03:57:09.073Z,1013.02
2017-06-10T03:58:18.030Z,1012.98
2017-06-10T03:59:26.984Z,1012.97
2017-06-10T04:00:35.939Z,1013
2017-06-10T04:01:45.147Z,1013
2017-06-10T04:02:54.107Z,1013.01
2017-06-10T04:04:03.387Z,1013.03
2017-06-10T04:05:12.341Z,1013.03
2017-06-10T04:06:21.300Z,1013.05
2017-06-10T04:07:30.512Z,1013.06
2017-06-10T04:08:39.555Z,1013.08
2017-06-10T04:09:48.511Z,1013.03
2017-06-10T04:10:57.471Z,1013.04
2017-06-10T04:12:06.431Z,1013.04
2017-06-10T04:13:15.394Z,1013.03
2017-06-10T04:14:24.354Z,1013
2017-06-10T04:15:33.310Z,1013.01
2017-06-10T04:16:42.265Z,1012.99
2017-06-10T04:17:51.221Z,1013.02
2017-06-10T04:19:00.230Z,1012.98
2017-06-10T04:20:09.190Z,1012.98
2017-06-10T04:21:18.150Z,1012.97
2017-06-10T04:22:27.109Z,1012.92
2017-06-10T04:23:36.064Z,1013
2017-06-10T04:24:45.078Z,1013
2017-06-10T04:25:54.034Z,1013.02
2017-06-10T04:27:03.077Z,1013.03
2017-06-10T04:28:12.029Z,1013.05
2017-06-10T04:29:20.985Z,1013.06
2017-06-10T04:30:29.943Z,1013.1
2017-06-10T04:31:38.897Z,1013.08
2017-06-10T04:32:47.944Z,1013.09
2017-06-10T04:33:56.994Z,1013.1
2017-06-10T04:35:05.981Z,1013.09
2017-06-10T04:36:14.989Z,1013.08
2017-06-10T04:37:23.946Z,1013.1
2017-06-10T04:38:32.903Z,1013.07
2017-06-10T04:39:41.861Z,1013.12
2017-06-10T04:40:50.911Z,1013.15
2017-06-10T04:41:59.869Z,1013.14
2017-06-10T04:43:08.827Z,1013.11
2017-06-10T04:44:17.780Z,1013.14
2017-06-10T04:45:26.742Z,1013.16
2017-06-10T04:46:35.696Z,1013.16
2017-06-10T04:47:44.699Z,1013.19
2017-06-10T04:48:53.653Z,1013.19
2017-06-10T04:50:02.620Z,1013.18
2017-06-10T04:51:11.579Z,1013.2
2017-06-10T04:52:20.536Z,1013.19
2017-06-10T04:53:29.543Z,1013.19
2017-06-10T04:54:38.503Z,1013.16
2017-06-10T04:55:47.464Z,1013.18
2017-06-10T04:56:56.416Z,1013.19
2017-06-10T04:58:05.370Z,1013.2
2017-06-10T04:59:14.328Z,1013.18
2017-06-10T05:00:23.286Z,1013.17
2017-06-10T05:01:32.247Z,1013.17
2017-06-10T05:02:41.612Z,1013.19
2017-06-10T05:03:50.566Z,1013.2
2017-06-10T05:04:59.523Z,1013.21
2017-06-10T05:06:08.484Z,1013.21
2017-06-10T05:07:17.443Z,1013.2
2017-06-10T05:08:26.401Z,1013.19
2017-06-10T05:09:35.363Z,1013.14
2017-06-10T05:10:44.352Z,1013.19
2017-06-10T05:11:53.313Z,1013.18
2017-06-10T05:13:02.288Z,1013.2
2017-06-10T05:14:11.247Z,1013.23
2017-06-10T05:15:20.203Z,1013.21
2017-06-10T05:16:29.158Z,1013.25
2017-06-10T05:17:38.114Z,1013.25
2017-06-10T05:18:47.068Z,1013.27
2017-06-10T05:19:56.032Z,1013.29
2017-06-10T05:21:04.996Z,1013.3
2017-06-10T05:22:14.092Z,1013.3
2017-06-10T05:23:23.058Z,1013.35
2017-06-10T05:24:32.015Z,1013.34
2017-06-10T05:25:40.969Z,1013.34
2017-06-10T05:26:49.922Z,1013.37
2017-06-10T05:27:58.881Z,1013.36
2017-06-10T05:29:07.833Z,1013.41
2017-06-10T05:30:16.876Z,1013.37
2017-06-10T05:31:25.840Z,1013.39
2017-06-10T05:32:34.798Z,1013.4
2017-06-10T05:33:43.754Z,1013.43
2017-06-10T05:34:52.710Z,1013.43
2017-06-10T05:36:01.671Z,1013.49
2017-06-10T05:37:10.634Z,1013.52
2017-06-10T05:38:19.595Z,1013.51
2017-06-10T05:39:28.557Z,1013.54
2017-06-10T05:40:37.523Z,1013.57
2017-06-10T05:41:46.479Z,1013.57
2017-06-10T05:42:55.523Z,1013.64
2017-06-10T05:44:04.510Z,1013.69
2017-06-10T05:45:13.465Z,1013.7
2017-06-10T05:46:22.418Z,1013.7
2017-06-10T05:47:31.372Z,1013.73
2017-06-10T05:48:40.331Z,1013.79
2017-06-10T05:49:49.287Z,1013.76
2017-06-10T05:50:58.255Z,1013.79
2017-06-10T05:52:07.226Z,1013.82
2017-06-10T05:53:16.185Z,1013.81
2017-06-10T05:54:25.142Z,1013.81
2017-06-10T05:55:34.099Z,1013.82
2017-06-10T05:56:43.073Z,1013.83
2017-06-10T05:57:52.354Z,1013.83
2017-06-10T05:59:01.312Z,1013.91
2017-06-10T06:00:10.269Z,1013.91
2017-06-10T06:01:19.231Z,1013.97
2017-06-10T06:02:28.190Z,1013.96
2017-06-10T06:03:37.237Z,1013.97
2017-06-10T06:04:46.198Z,1013.99
2017-06-10T06:05:55.164Z,1014
2017-06-10T06:07:04.121Z,1013.98
2017-06-10T06:08:13.080Z,1013.98
2017-06-10T06:09:22.035Z,1013.99
2017-06-10T06:10:30.999Z,1014
2017-06-10T06:11:39.953Z,1014.1
2017-06-10T06:12:48.911Z,1014.16
2017-06-10T06:13:57.896Z,1014.19
2017-06-10T06:15:06.855Z,1014.22
2017-06-10T06:16:15.835Z,1014.2
2017-06-10T06:17:24.792Z,1014.17
2017-06-10T06:18:33.753Z,1014.19
2017-06-10T06:19:42.713Z,1014.16
2017-06-10T06:20:51.678Z,1014.16
2017-06-10T06:22:00.960Z,1014.22
2017-06-10T06:23:10.010Z,1014.22
2017-06-10T06:24:18.964Z,1014.16
2017-06-10T06:25:27.919Z,1014.18
2017-06-10T06:26:36.873Z,1014.18
2017-06-10T06:27:45.834Z,1014.18
2017-06-10T06:28:54.793Z,1014.24
2017-06-10T06:30:03.756Z,1014.2
2017-06-10T06:31:12.771Z,1014.25
2017-06-10T06:32:21.729Z,1014.26
2017-06-10T06:33:30.774Z,1014.28
2017-06-10T06:34:39.730Z,1014.29
2017-06-10T06:35:48.691Z,1014.26
2017-06-10T06:36:57.703Z,1014.27
2017-06-10T06:38:06.664Z,1014.34
2017-06-10T06:39:15.627Z,1014.33
2017-06-10T06:40:24.585Z,1014.37
2017-06-10T06:41:33.541Z,1014.38
2017-06-10T06:42:42.554Z,1014.4
2017-06-10T06:43:51.535Z,1014.46
2017-06-10T06:45:00.490Z,1014.45
2017-06-10T06:46:09.447Z,1014.49
2017-06-10T06:47:18.410Z,1014.51
2017-06-10T06:48:27.419Z,1014.48
2017-06-10T06:49:36.384Z,1014.55
2017-06-10T06:50:45.343Z,1014.5
2017-06-10T06:51:54.315Z,1014.53
2017-06-10T06:53:03.275Z,1014.59
2017-06-10T06:54:12.285Z,1014.55
2017-06-10T06:55:21.242Z,1014.56
2017-06-10T06:56:30.213Z,1014.6
2017-06-10T06:57:39.168Z,1014.63
2017-06-10T06:58:48.130Z,1014.59
2017-06-10T06:59:57.086Z,1014.59
2017-06-10T07:01:06.041Z,1014.62
2017-06-10T07:02:15.005Z,1014.63
2017-06-10T07:03:23.971Z,1014.58
2017-06-10T07:04:32.923Z,1014.65
2017-06-10T07:05:41.908Z,1014.63
2017-06-10T07:06:50.864Z,1014.61
2017-06-10T07:07:59.824Z,1014.61
2017-06-10T07:09:08.785Z,1014.6
2017-06-10T07:10:17.835Z,1014.6
2017-06-10T07:11:26.795Z,1014.64
2017-06-10T07:12:35.762Z,1014.62
2017-06-10T07:13:44.719Z,1014.7
2017-06-10T07:14:53.675Z,1014.67
2017-06-10T07:16:02.637Z,1014.66
2017-06-10T07:17:11.598Z,1014.72
2017-06-10T07:18:20.555Z,1014.74
2017-06-10T07:19:29.514Z,1014.76
2017-06-10T07:20:38.475Z,1014.7
2017-06-10T07:21:47.767Z,1014.71
2017-06-10T07:22:56.727Z,1014.75
2017-06-10T07:24:06.009Z,1014.77
2017-06-10T07:25:14.968Z,1014.73
2017-06-10T07:26:23.929Z,1014.68
2017-06-10T07:27:32.885Z,1014.69
2017-06-10T07:28:41.850Z,1014.71
2017-06-10T07:29:50.814Z,1014.75
2017-06-10T07:30:59.774Z,1014.83
2017-06-10T07:32:08.762Z,1014.78
2017-06-10T07:33:17.719Z,1014.78
2017-06-10T07:34:26.822Z,1014.8
2017-06-10T07:35:35.781Z,1014.85
2017-06-10T07:36:44.744Z,1014.81
2017-06-10T07:37:53.714Z,1014.79
2017-06-10T07:39:02.675Z,1014.79
2017-06-10T07:40:11.899Z,1014.85
2017-06-10T07:41:21.897Z,1014.8
2017-06-10T07:42:31.686Z,1014.83
2017-06-10T07:43:41.579Z,1014.85
2017-06-10T07:44:51.542Z,1014.86
2017-06-10T07:46:01.252Z,1014.89
2017-06-10T07:47:11.366Z,1014.88
2017-06-10T07:48:21.598Z,1014.95
2017-06-10T07:49:30.937Z,1014.97
2017-06-10T07:50:40.278Z,1014.96
2017-06-10T07:51:49.334Z,1014.98
2017-06-10T07:52:58.915Z,1014.98
2017-06-10T07:54:08.501Z,1015
2017-06-10T07:55:18.293Z,1015.02
2017-06-10T07:56:27.832Z,1014.99
2017-06-10T07:57:36.802Z,1014.94
2017-06-10T07:58:45.919Z,1015
2017-06-10T07:59:54.877Z,1015
2017-06-10T08:01:04.225Z,1015.05
2017-06-10T08:02:13.186Z,1015.03
2017-06-10T08:03:22.394Z,1015.03
2017-06-10T08:04:31.352Z,1015.04
2017-06-10T08:05:40.315Z,1015.03
2017-06-10T08:06:49.369Z,1015.02
2017-06-10T08:07:58.419Z,1015.04
2017-06-10T08:09:07.441Z,1015.05
2017-06-10T08:10:16.573Z,1015.03
2017-06-10T08:11:26.402Z,1015.08
2017-06-10T08:12:36.204Z,1015.06
2017-06-10T08:13:46.670Z,1015.11
2017-06-10T08:14:56.490Z,1015.1
2017-06-10T08:16:06.175Z,1015.13
2017-06-10T08:17:16.208Z,1015.09
2017-06-10T08:18:26.232Z,1015.12
2017-06-10T08:19:36.254Z,1015.06
2017-06-10T08:20:46.002Z,1015.05
2017-06-10T08:21:55.115Z,1015.13
2017-06-10T08:23:04.087Z,1015.14
2017-06-10T08:24:13.510Z,1015.1
2017-06-10T08:25:23.336Z,1015.16
2017-06-10T08:26:32.847Z,1015.18
2017-06-10T08:27:41.806Z,1015.21
2017-06-10T08:28:51.074Z,1015.26
2017-06-10T08:30:00.513Z,1015.26
2017-06-10T08:31:09.922Z,1015.19
2017-06-10T08:32:19.599Z,1015.2
2017-06-10T08:33:28.714Z,1015.22
2017-06-10T08:34:37.940Z,1015.24
2017-06-10T08:35:47.217Z,1015.21
2017-06-10T08:36:56.178Z,1015.24
2017-06-10T08:38:05.138Z,1015.28
2017-06-10T08:39:14.097Z,1015.24
2017-06-10T08:40:23.065Z,1015.27
2017-06-10T08:41:32.032Z,1015.28
2017-06-10T08:42:40.998Z,1015.3
2017-06-10T08:43:50.045Z,1015.3
2017-06-10T08:44:59.007Z,1015.29
2017-06-10T08:46:07.972Z,1015.3
2017-06-10T08:47:16.933Z,1015.31
2017-06-10T08:48:25.892Z,1015.34
2017-06-10T08:49:34.857Z,1015.35
2017-06-10T08:50:43.826Z,1015.36
2017-06-10T08:51:53.044Z,1015.36
2017-06-10T08:53:02.290Z,1015.33
2017-06-10T08:54:11.638Z,1015.34
2017-06-10T08:55:20.739Z,1015.34
2017-06-10T08:56:29.825Z,1015.34
2017-06-10T08:57:38.972Z,1015.38
2017-06-10T08:58:48.134Z,1015.31
2017-06-10T08:59:57.406Z,1015.39
2017-06-10T09:01:06.752Z,1015.31
2017-06-10T09:02:16.019Z,1015.33
2017-06-10T09:03:25.348Z,1015.42
2017-06-10T09:04:34.472Z,1015.38
2017-06-10T09:05:43.599Z,1015.48
2017-06-10T09:06:52.712Z,1015.49
2017-06-10T09:08:01.783Z,1015.42
2017-06-10T09:09:10.819Z,1015.48
2017-06-10T09:10:19.785Z,1015.49
2017-06-10T09:11:28.749Z,1015.51
2017-06-10T09:12:37.716Z,1015.45
2017-06-10T09:13:46.677Z,1015.52
2017-06-10T09:14:55.665Z,1015.51
2017-06-10T09:16:04.627Z,1015.53
2017-06-10T09:17:14.225Z,1015.51
2017-06-10T09:18:23.344Z,1015.55
2017-06-10T09:19:32.375Z,1015.55
2017-06-10T09:20:41.461Z,1015.56
2017-06-10T09:21:50.482Z,1015.54
2017-06-10T09:22:59.645Z,1015.58
2017-06-10T09:24:08.771Z,1015.58
2017-06-10T09:25:17.759Z,1015.64
2017-06-10T09:26:26.779Z,1015.6
2017-06-10T09:27:35.832Z,1015.57
2017-06-10T09:28:45.112Z,1015.57
2017-06-10T09:29:54.180Z,1015.56
2017-06-10T09:31:03.327Z,1015.58
2017-06-10T09:32:12.999Z,1015.58
2017-06-10T09:33:22.048Z,1015.57
2017-06-10T09:34:31.200Z,1015.52
2017-06-10T09:35:40.530Z,1015.44
2017-06-10T09:36:49.734Z,1015.47
2017-06-10T09:37:58.822Z,1015.53
2017-06-10T09:39:07.793Z,1015.53
2017-06-10T09:40:16.783Z,1015.56
2017-06-10T09:41:25.969Z,1015.55
2017-06-10T09:42:35.085Z,1015.54
2017-06-10T09:43:44.051Z,1015.55
2017-06-10T09:44:53.065Z,1015.63
2017-06-10T09:46:02.088Z,1015.67
2017-06-10T09:47:11.171Z,1015.59
2017-06-10T09:48:20.132Z,1015.58
2017-06-10T09:49:29.140Z,1015.63
2017-06-10T09:50:38.219Z,1015.63
2017-06-10T09:51:47.232Z,1015.6
2017-06-10T09:52:56.371Z,1015.56
2017-06-10T09:54:05.462Z,1015.57
2017-06-10T09:55:14.423Z,1015.63
2017-06-10T09:56:23.397Z,1015.6
2017-06-10T09:57:32.361Z,1015.62
2017-06-10T09:58:41.376Z,1015.58
2017-06-10T09:59:50.337Z,1015.5
2017-06-10T10:00:59.389Z,1015.52
2017-06-10T10:02:08.349Z,1015.44
2017-06-10T10:03:17.311Z,1015.49
2017-06-10T10:04:26.265Z,1015.38
2017-06-10T10:05:35.230Z,1015.34
2017-06-10T10:06:44.195Z,1015.39
2017-06-10T10:07:53.159Z,1015.38
2017-06-10T10:09:02.115Z,1015.38
2017-06-10T10:10:11.132Z,1015.35
2017-06-10T10:11:20.425Z,1015.38
2017-06-10T10:12:29.388Z,1015.39
2017-06-10T10:13:38.460Z,1015.4
2017-06-10T10:14:47.419Z,1015.43
2017-06-10T10:15:56.382Z,1015.37
2017-06-10T10:17:05.343Z,1015.4
2017-06-10T10:18:14.307Z,1015.34
2017-06-10T10:19:23.267Z,1015.28
2017-06-10T10:20:32.259Z,1015.4
2017-06-10T10:21:41.676Z,1015.32
2017-06-10T10:22:50.648Z,1015.33
2017-06-10T10:23:59.618Z,1015.32
2017-06-10T10:25:08.680Z,1015.36
2017-06-10T10:26:17.730Z,1015.37
2017-06-10T10:27:26.699Z,1015.4
2017-06-10T10:28:35.983Z,1015.39
2017-06-10T10:29:44.943Z,1015.41
2017-06-10T10:30:53.908Z,1015.39
2017-06-10T10:32:02.889Z,1015.42
2017-06-10T10:33:11.939Z,1015.39
2017-06-10T10:34:20.900Z,1015.39
2017-06-10T10:35:29.864Z,1015.36
2017-06-10T10:36:38.918Z,1015.39
2017-06-10T10:37:48.206Z,1015.36
2017-06-10T10:38:57.216Z,1015.31
2017-06-10T10:40:06.177Z,1015.33
2017-06-10T10:41:15.140Z,1015.39
2017-06-10T10:42:24.112Z,1015.45
2017-06-10T10:43:33.078Z,1015.45
2017-06-10T10:44:42.178Z,1015.43
2017-06-10T10:45:51.142Z,1015.41
2017-06-10T10:47:00.132Z,1015.41
2017-06-10T10:48:09.092Z,1015.33
2017-06-10T10:49:18.886Z,1015.35
2017-06-10T10:50:27.845Z,1015.31
2017-06-10T10:51:36.809Z,1015.34
2017-06-10T10:52:45.772Z,1015.36
2017-06-10T10:53:54.820Z,1015.35
2017-06-10T10:55:03.785Z,1015.34
2017-06-10T10:56:12.752Z,1015.3
2017-06-10T10:57:21.798Z,1015.32
2017-06-10T10:58:30.764Z,1015.3
2017-06-10T10:59:39.813Z,1015.3
2017-06-10T11:00:48.784Z,1015.32
2017-06-10T11:01:57.796Z,1015.27
2017-06-10T11:03:06.813Z,1015.28
2017-06-10T11:04:15.772Z,1015.2
2017-06-10T11:05:24.732Z,1015.17
2017-06-10T11:06:33.696Z,1015.16
2017-06-10T11:07:42.718Z,1015.24
2017-06-10T11:08:51.677Z,1015.24
2017-06-10T11:10:00.640Z,1015.22
2017-06-10T11:11:09.599Z,1015.2
2017-06-10T11:12:18.561Z,1015.21
2017-06-10T11:13:27.596Z,1015.21
2017-06-10T11:14:36.558Z,1015.23
2017-06-10T11:15:45.612Z,1015.2
2017-06-10T11:16:54.576Z,1015.16
2017-06-10T11:18:03.540Z,1015.18
2017-06-10T11:19:12.506Z,1015.21
2017-06-10T11:20:21.467Z,1015.21
2017-06-10T11:21:30.455Z,1015.12
2017-06-10T11:22:39.420Z,1015.1
2017-06-10T11:23:48.386Z,1015.1
2017-06-10T11:24:57.404Z,1015.08
2017-06-10T11:26:06.390Z,1015.09
2017-06-10T11:27:15.357Z,1015.1
2017-06-10T11:28:24.499Z,1015.08
2017-06-10T11:29:33.544Z,1015.12
2017-06-10T11:30:42.589Z,1015.1
2017-06-10T11:31:51.555Z,1015.07
2017-06-10T11:33:00.527Z,1015.09
2017-06-10T11:34:09.491Z,1015.11
2017-06-10T11:35:18.455Z,1015.14
2017-06-10T11:36:27.447Z,1015.12
2017-06-10T11:37:36.497Z,1015.18
2017-06-10T11:38:45.798Z,1015.22
2017-06-10T11:39:54.756Z,1015.21
2017-06-10T11:41:03.728Z,1015.2
2017-06-10T11:42:12.687Z,1015.21
2017-06-10T11:43:21.650Z,1015.21
2017-06-10T11:44:30.612Z,1015.23
2017-06-10T11:45:39.575Z,1015.22
2017-06-10T11:46:48.549Z,1015.14
2017-06-10T11:47:57.511Z,1015.09
2017-06-10T11:49:06.478Z,1015.13
2017-06-10T11:50:15.444Z,1015.11
2017-06-10T11:51:24.405Z,1015.12
2017-06-10T11:52:33.396Z,1015.1
2017-06-10T11:53:42.359Z,1015.1
2017-06-10T11:54:51.320Z,1015.01
2017-06-10T11:56:00.281Z,1015.01
2017-06-10T11:57:09.240Z,1015.08
2017-06-10T11:58:18.205Z,1015.05
2017-06-10T11:59:27.498Z,1015.09
2017-06-10T12:00:36.464Z,1015.14
2017-06-10T12:01:45.458Z,1015.11
2017-06-10T12:02:54.422Z,1015.04
2017-06-10T12:04:03.386Z,1015.08
2017-06-10T12:05:12.436Z,1015.11
2017-06-10T12:06:21.400Z,1015.15
2017-06-10T12:07:30.369Z,1015.17
2017-06-10T12:08:39.342Z,1015.22
2017-06-10T12:09:48.306Z,1015.24
2017-06-10T12:10:57.267Z,1015.2
2017-06-10T12:12:06.240Z,1015.2
2017-06-10T12:13:15.464Z,1015.18
2017-06-10T12:14:24.515Z,1015.15
2017-06-10T12:15:33.484Z,1015.08
2017-06-10T12:16:42.446Z,1015.12
2017-06-10T12:17:51.406Z,1015.12
2017-06-10T12:19:00.368Z,1015.11
2017-06-10T12:20:09.338Z,1015.18
2017-06-10T12:21:18.298Z,1015.16
2017-06-10T12:22:27.261Z,1015.13
2017-06-10T12:23:36.316Z,1015.17
2017-06-10T12:24:45.278Z,1015.07
2017-06-10T12:25:54.277Z,1015.1
2017-06-10T12:27:03.241Z,1015.15
2017-06-10T12:28:12.202Z,1015.17
2017-06-10T12:29:21.162Z,1015.2
2017-06-10T12:30:30.129Z,1015.2
2017-06-10T12:31:39.091Z,1015.07
2017-06-10T12:32:48.070Z,1015.09
2017-06-10T12:33:57.232Z,1015.12
2017-06-10T12:35:06.190Z,1015.08
2017-06-10T12:36:15.151Z,1015.06
2017-06-10T12:37:24.121Z,1015.08
2017-06-10T12:38:33.207Z,1015.11
2017-06-10T12:39:42.484Z,1015.03
2017-06-10T12:40:51.445Z,1015.1
2017-06-10T12:42:00.495Z,1015.09
2017-06-10T12:43:09.460Z,1015.1
2017-06-10T12:44:18.426Z,1015.11
2017-06-10T12:45:27.386Z,1015.1
2017-06-10T12:46:36.510Z,1015.12
2017-06-10T12:47:45.567Z,1015.06
2017-06-10T12:48:54.531Z,1015.01
2017-06-10T12:50:03.598Z,1015.05
2017-06-10T12:51:12.562Z,1015.04
2017-06-10T12:52:21.706Z,1015.02
2017-06-10T12:53:31.612Z,1015
2017-06-10T12:54:40.673Z,1015.03
2017-06-10T12:55:49.640Z,1015
2017-06-10T12:56:58.597Z,1015.01
2017-06-10T12:58:07.556Z,1015.02
2017-06-10T12:59:16.517Z,1015.04
2017-06-10T13:00:25.813Z,1015.06
2017-06-10T13:01:35.106Z,1015.09
2017-06-10T13:02:44.119Z,1015.11
2017-06-10T13:03:53.172Z,1015.1
2017-06-10T13:05:02.167Z,1015.15
2017-06-10T13:06:11.463Z,1015.16
2017-06-10T13:07:20.557Z,1015.17
2017-06-10T13:08:29.571Z,1015.17
2017-06-10T13:09:38.569Z,1015.17
2017-06-10T13:10:47.541Z,1015.16
2017-06-10T13:11:56.508Z,1015.18
2017-06-10T13:13:05.472Z,1015.21
2017-06-10T13:14:14.515Z,1015.23
2017-06-10T13:15:23.484Z,1015.22
2017-06-10T13:16:32.454Z,1015.18
2017-06-10T13:17:41.424Z,1015.21
2017-06-10T13:18:50.382Z,1015.19
2017-06-10T13:19:59.347Z,1015.21
2017-06-10T13:21:08.769Z,1015.21
2017-06-10T13:22:17.734Z,1015.19
2017-06-10T13:23:26.724Z,1015.28
2017-06-10T13:24:36.227Z,1015.28
2017-06-10T13:25:45.538Z,1015.26
2017-06-10T13:26:54.514Z,1015.21
2017-06-10T13:28:03.477Z,1015.18
2017-06-10T13:29:12.531Z,1015.19
2017-06-10T13:30:21.821Z,1015.17
2017-06-10T13:31:30.789Z,1015.2
2017-06-10T13:32:39.751Z,1015.19
2017-06-10T13:33:48.803Z,1015.26
2017-06-10T13:34:57.763Z,1015.25
2017-06-10T13:36:06.721Z,1015.25
2017-06-10T13:37:15.679Z,1015.22
2017-06-10T13:38:24.644Z,1015.27
2017-06-10T13:39:33.601Z,1015.27
2017-06-10T13:40:42.565Z,1015.29
2017-06-10T13:41:51.525Z,1015.26
2017-06-10T13:43:00.568Z,1015.28
2017-06-10T13:44:10.554Z,1015.36
2017-06-10T13:45:19.523Z,1015.3
2017-06-10T13:46:28.490Z,1015.31
2017-06-10T13:47:37.456Z,1015.31
2017-06-10T13:48:46.469Z,1015.31
2017-06-10T13:49:55.431Z,1015.25
2017-06-10T13:51:04.395Z,1015.25
2017-06-10T13:52:13.364Z,1015.25
2017-06-10T13:53:22.330Z,1015.2
2017-06-10T13:54:31.446Z,1015.2
2017-06-10T13:55:40.410Z,1015.29
2017-06-10T13:56:49.489Z,1015.32
2017-06-10T13:57:59.427Z,1015.29
2017-06-10T13:59:08.380Z,1015.2
2017-06-10T14:00:17.392Z,1015.31
2017-06-10T14:01:26.354Z,1015.25